Time;durP1;ratioP1;P1;durP2;ratioP2;P2;SDS_P1;SDS_P2;PMS_P1;PMS_P2;Temp;Humidity;BMP_temperature;BMP_pressure;BME280_temperature;BME280_humidity;BME280_pressure;Samples;Min_cycle;Max_cycle;Signal;HPM_P1;HPM_P2
2022/03/14 00:01:26;;;;;;;8.30;7.70;;;17.60;63.50;;;;;;5072203;28;43987;-70
2022/03/14 00:03:55;;;;;;;7.87;7.23;;;17.70;63.60;;;;;;5073054;28;45636;-71
2022/03/14 00:06:23;;;;;;;7.97;7.27;;;17.80;63.20;;;;;;5074211;27;43383;-71
2022/03/14 00:08:55;;;;;;;7.97;7.30;;;18.10;62.70;;;;;;5071325;28;43962;-71
2022/03/14 00:11:23;;;;;;;8.10;7.33;;;18.20;61.90;;;;;;5069976;28;44212;-71
2022/03/14 00:13:55;;;;;;;7.60;7.10;;;18.40;61.60;;;;;;5081241;28;46127;-72
2022/03/14 00:16:25;;;;;;;7.20;6.80;;;18.40;61.40;;;;;;5091395;28;43989;-70
2022/03/14 00:18:55;;;;;;;7.03;6.63;;;18.30;61.30;;;;;;5086389;27;43769;-71
2022/03/14 00:21:23;;;;;;;7.57;6.97;;;18.20;61.20;;;;;;5090476;28;43926;-72
2022/03/14 00:23:51;;;;;;;7.60;7.07;;;18.10;61.60;;;;;;5079620;28;44944;-71
2022/03/14 00:26:22;;;;;;;7.10;6.60;;;18.00;61.80;;;;;;5071098;28;43386;-71
2022/03/14 00:28:55;;;;;;;7.07;6.67;;;17.90;62.00;;;;;;5084586;28;43943;-71
2022/03/14 00:31:22;;;;;;;7.23;6.73;;;17.80;62.20;;;;;;5091422;28;44093;-71
2022/03/14 00:33:51;;;;;;;6.43;6.03;;;17.80;62.40;;;;;;5091246;27;43609;-71
2022/03/14 00:36:19;;;;;;;7.00;6.60;;;17.70;62.40;;;;;;5090675;28;44003;-71
2022/03/14 00:38:48;;;;;;;6.50;6.10;;;17.70;63.00;;;;;;5091836;28;43924;-71
2022/03/14 00:41:16;;;;;;;6.40;6.00;;;17.80;63.10;;;;;;5092067;28;43461;-71
2022/03/14 00:43:44;;;;;;;7.17;6.67;;;17.90;62.50;;;;;;5089442;28;45989;-70
2022/03/14 00:46:16;;;;;;;6.60;6.10;;;18.00;62.20;;;;;;5071313;28;44025;-71
2022/03/14 00:48:45;;;;;;;6.10;5.70;;;18.00;62.00;;;;;;5065308;28;44078;-71
2022/03/14 00:51:13;;;;;;;6.23;5.80;;;18.00;61.90;;;;;;5083244;28;43578;-71
2022/03/14 00:53:41;;;;;;;6.10;5.77;;;17.90;61.90;;;;;;5075194;28;46379;-71
2022/03/14 00:56:08;;;;;;;5.60;5.30;;;17.90;62.10;;;;;;5071220;28;43463;-71
2022/03/14 00:58:36;;;;;;;5.87;5.57;;;17.80;62.20;;;;;;5070216;28;43982;-71
2022/03/14 01:01:05;;;;;;;5.97;5.60;;;17.80;63.20;;;;;;5078889;28;43864;-71
2022/03/14 01:03:35;;;;;;;6.10;5.70;;;17.70;62.60;;;;;;5083331;28;45127;-71
2022/03/14 01:06:02;;;;;;;4.93;4.73;;;17.70;62.70;;;;;;5085035;28;44022;-71
2022/03/14 01:08:30;;;;;;;5.70;5.40;;;17.70;62.80;;;;;;5076111;28;43977;-71
2022/03/14 01:10:58;;;;;;;5.40;5.10;;;17.60;62.80;;;;;;5072174;28;43396;-71
2022/03/14 01:13:26;;;;;;;5.80;5.50;;;17.60;62.90;;;;;;5085114;28;43915;-72
2022/03/14 01:15:54;;;;;;;5.40;5.10;;;17.70;63.30;;;;;;5083990;27;43962;-71
2022/03/14 01:18:22;;;;;;;5.33;5.10;;;17.80;63.10;;;;;;5090686;27;43879;-71
2022/03/14 01:20:51;;;;;;;5.53;5.23;;;18.00;62.60;;;;;;5077992;28;43445;-72
2022/03/14 01:23:20;;;;;;;5.37;5.10;;;18.20;62.10;;;;;;5075922;28;43935;-71
2022/03/14 01:25:48;;;;;;;4.93;4.70;;;18.30;61.50;;;;;;5068583;28;44597;-71
2022/03/14 01:28:18;;;;;;;5.70;5.30;;;18.40;61.30;;;;;;5078791;28;43375;-71
2022/03/14 01:30:46;;;;;;;4.80;4.60;;;18.30;61.10;;;;;;5089554;28;44019;-72
2022/03/14 01:33:14;;;;;;;4.90;4.70;;;18.20;61.20;;;;;;5069201;28;44041;-71
2022/03/14 01:35:42;;;;;;;4.80;4.53;;;18.10;61.30;;;;;;5076830;28;44071;-71
2022/03/14 01:38:12;;;;;;;5.10;4.90;;;18.00;61.70;;;;;;5072682;28;43340;-72
2022/03/14 01:40:40;;;;;;;4.60;4.40;;;17.90;61.80;;;;;;5075039;27;43915;-71
2022/03/14 01:43:08;;;;;;;4.77;4.57;;;17.90;62.10;;;;;;5072453;28;43950;-71
2022/03/14 01:45:36;;;;;;;4.70;4.50;;;17.80;62.20;;;;;;5089526;28;43993;-71
2022/03/14 01:48:05;;;;;;;4.47;4.27;;;17.80;62.40;;;;;;5088123;28;43477;-71
2022/03/14 01:50:34;;;;;;;4.97;4.77;;;17.70;62.50;;;;;;5088395;28;43387;-71
2022/03/14 01:53:02;;;;;;;4.73;4.53;;;17.70;63.00;;;;;;5078687;28;43623;-72
2022/03/14 01:55:31;;;;;;;4.57;4.37;;;17.90;62.90;;;;;;5090274;28;44116;-71
2022/03/14 01:57:59;;;;;;;4.50;4.30;;;18.00;62.30;;;;;;5090028;28;44003;-71
2022/03/14 02:00:28;;;;;;;4.40;4.20;;;18.10;62.10;;;;;;5087306;28;43604;-71
2022/03/14 02:02:56;;;;;;;4.20;4.00;;;18.00;61.80;;;;;;5069844;28;44926;-72
2022/03/14 02:05:25;;;;;;;3.97;3.80;;;18.00;61.80;;;;;;5069767;28;43944;-71
2022/03/14 02:07:53;;;;;;;3.80;3.70;;;17.90;61.80;;;;;;5070226;28;44010;-72
2022/03/14 02:10:20;;;;;;;3.80;3.67;;;17.90;62.10;;;;;;5070382;28;43756;-71
2022/03/14 02:12:50;;;;;;;4.20;4.00;;;17.80;62.10;;;;;;5083752;28;44139;-72
2022/03/14 02:15:20;;;;;;;3.73;3.63;;;17.80;62.40;;;;;;5082978;27;43830;-71
2022/03/14 02:17:49;;;;;;;3.60;3.50;;;17.70;62.50;;;;;;5079619;28;43985;-71
2022/03/14 02:20:19;;;;;;;3.80;3.70;;;17.70;62.60;;;;;;5071089;28;43908;-71
2022/03/14 02:22:46;;;;;;;3.70;3.60;;;17.70;62.80;;;;;;5069796;28;44031;-71
2022/03/14 02:25:14;;;;;;;3.70;3.60;;;17.60;62.70;;;;;;5069510;28;43926;-70
2022/03/14 02:27:42;;;;;;;4.33;4.13;;;17.60;62.90;;;;;;5069112;28;44039;-71
2022/03/14 02:30:11;;;;;;;3.87;3.77;;;17.70;63.20;;;;;;5069695;28;44029;-71
2022/03/14 02:32:42;;;;;;;3.97;3.77;;;17.80;62.90;;;;;;5076640;28;44217;-71
2022/03/14 02:35:10;;;;;;;4.07;3.97;;;18.00;62.40;;;;;;5072947;28;44035;-71
2022/03/14 02:37:39;;;;;;;4.00;3.87;;;18.20;61.70;;;;;;5072906;28;44094;-71
2022/03/14 02:40:09;;;;;;;3.60;3.50;;;18.40;61.20;;;;;;5074145;28;43407;-70
2022/03/14 02:42:37;;;;;;;3.63;3.53;;;18.40;61.00;;;;;;5079966;28;44283;-71
2022/03/14 02:45:06;;;;;;;3.50;3.40;;;18.30;61.00;;;;;;5090975;28;43942;-71
2022/03/14 02:47:34;;;;;;;3.50;3.40;;;18.20;61.00;;;;;;5087761;28;43801;-71
2022/03/14 02:50:02;;;;;;;3.50;3.40;;;18.10;61.20;;;;;;5074148;28;44010;-70
2022/03/14 02:52:30;;;;;;;3.50;3.40;;;18.00;61.40;;;;;;5073529;28;43952;-71
2022/03/14 02:54:59;;;;;;;3.20;3.10;;;18.00;61.70;;;;;;5083006;28;45107;-71
2022/03/14 02:57:28;;;;;;;2.87;2.80;;;17.90;61.90;;;;;;5073092;28;44075;-71
2022/03/14 02:59:56;;;;;;;3.07;2.97;;;17.80;62.00;;;;;;5080517;28;43949;-71
2022/03/14 03:02:25;;;;;;;3.40;3.30;;;17.80;62.30;;;;;;5090991;28;45215;-71
2022/03/14 03:04:53;;;;;;;3.10;2.97;;;17.70;62.70;;;;;;5091030;28;44957;-70
2022/03/14 03:07:22;;;;;;;3.20;3.10;;;17.80;62.90;;;;;;5073506;28;43948;-71
2022/03/14 03:09:50;;;;;;;3.27;3.17;;;17.90;62.30;;;;;;5073331;28;43944;-71
2022/03/14 03:12:23;;;;;;;3.17;3.07;;;18.00;61.90;;;;;;5085612;28;43883;-71
2022/03/14 03:14:51;;;;;;;2.93;2.83;;;18.10;61.90;;;;;;5086432;28;43457;-71
2022/03/14 03:17:21;;;;;;;2.93;2.83;;;18.00;61.70;;;;;;5092141;28;44323;-71
2022/03/14 03:19:49;;;;;;;3.03;2.93;;;18.00;61.70;;;;;;5072935;28;44152;-71
2022/03/14 03:22:16;;;;;;;2.57;2.57;;;17.90;61.80;;;;;;5091686;28;43743;-71
2022/03/14 03:24:48;;;;;;;2.33;2.33;;;17.80;61.90;;;;;;5065607;28;43985;-71
2022/03/14 03:27:16;;;;;;;2.73;2.73;;;17.80;62.20;;;;;;5092095;28;44040;-71
2022/03/14 03:29:45;;;;;;;2.90;2.80;;;17.80;62.50;;;;;;5085107;27;43985;-71
2022/03/14 03:32:13;;;;;;;3.10;3.00;;;17.70;62.60;;;;;;5092241;28;43957;-70
2022/03/14 03:34:41;;;;;;;2.97;2.87;;;17.70;62.70;;;;;;5078091;27;43998;-71
2022/03/14 03:37:10;;;;;;;2.87;2.77;;;17.70;62.80;;;;;;5070577;28;44037;-71
2022/03/14 03:39:37;;;;;;;2.73;2.73;;;17.60;62.80;;;;;;5071622;28;43292;-70
2022/03/14 03:42:06;;;;;;;2.73;2.63;;;17.70;63.30;;;;;;5072419;28;43905;-71
2022/03/14 03:44:36;;;;;;;2.80;2.70;;;17.80;62.90;;;;;;5090972;27;43998;-71
2022/03/14 03:47:05;;;;;;;2.73;2.53;;;17.90;62.60;;;;;;5091667;28;43832;-72
2022/03/14 03:49:33;;;;;;;2.73;2.63;;;18.10;62.10;;;;;;5091152;28;43466;-70
2022/03/14 03:52:01;;;;;;;2.80;2.70;;;18.30;61.60;;;;;;5090720;28;44067;-71
2022/03/14 03:54:29;;;;;;;2.70;2.60;;;18.40;61.20;;;;;;5085389;28;43921;-71
2022/03/14 03:56:57;;;;;;;2.40;2.40;;;18.30;61.10;;;;;;5073378;28;43634;-72
2022/03/14 03:59:27;;;;;;;2.50;2.50;;;18.20;61.20;;;;;;5092404;28;43901;-70
2022/03/14 04:01:55;;;;;;;2.23;2.23;;;18.10;61.40;;;;;;5091224;28;43996;-70
2022/03/14 04:04:25;;;;;;;2.30;2.30;;;18.00;61.60;;;;;;5090657;27;43986;-70
2022/03/14 04:06:57;;;;;;;2.57;2.57;;;18.00;62.00;;;;;;5091721;27;43863;-70
2022/03/14 04:09:26;;;;;;;2.60;2.50;;;17.90;62.10;;;;;;5091843;27;43415;-72
2022/03/14 04:11:54;;;;;;;2.50;2.50;;;17.80;62.30;;;;;;5091453;28;45104;-70
2022/03/14 04:14:22;;;;;;;2.30;2.30;;;17.80;62.50;;;;;;5081950;28;43406;-71
2022/03/14 04:16:50;;;;;;;2.23;2.23;;;17.70;62.50;;;;;;5071917;28;43443;-71
2022/03/14 04:19:18;;;;;;;2.23;2.23;;;17.70;62.90;;;;;;5072132;28;44051;-71
2022/03/14 04:21:52;;;;;;;2.27;2.27;;;17.80;62.70;;;;;;5069786;28;45654;-71
2022/03/14 04:24:21;;;;;;;2.23;2.23;;;18.00;62.30;;;;;;5071938;28;43859;-70
2022/03/14 04:26:49;;;;;;;2.10;2.07;;;18.00;62.00;;;;;;5086688;28;44134;-70
2022/03/14 04:29:18;;;;;;;2.23;2.20;;;18.00;61.90;;;;;;5074901;28;43430;-71
2022/03/14 04:31:46;;;;;;;2.07;2.07;;;18.00;62.00;;;;;;5077811;28;44002;-71
2022/03/14 04:34:14;;;;;;;2.50;2.30;;;17.90;62.10;;;;;;5079538;28;44990;-71
2022/03/14 04:36:43;;;;;;;2.07;2.07;;;17.90;62.30;;;;;;5080392;28;44034;-71
2022/03/14 04:39:12;;;;;;;2.20;2.20;;;17.80;62.40;;;;;;5069415;28;43968;-71
2022/03/14 04:41:40;;;;;;;2.10;2.10;;;17.80;62.70;;;;;;5068409;28;45743;-72
2022/03/14 04:44:08;;;;;;;2.17;2.17;;;17.70;62.70;;;;;;5081570;28;43855;-72
2022/03/14 04:46:36;;;;;;;2.10;2.10;;;17.70;62.90;;;;;;5073180;27;43419;-72
2022/03/14 04:49:05;;;;;;;2.10;2.00;;;17.70;63.00;;;;;;5078098;28;44072;-72
2022/03/14 04:51:33;;;;;;;2.00;2.00;;;17.60;63.10;;;;;;5074666;28;44053;-71
2022/03/14 04:54:01;;;;;;;2.50;2.40;;;17.60;63.10;;;;;;5089946;28;43912;-71
2022/03/14 04:56:30;;;;;;;2.00;2.00;;;17.70;63.30;;;;;;5072993;28;43386;-69
2022/03/14 04:58:58;;;;;;;2.17;2.07;;;17.80;63.00;;;;;;5071305;28;43801;-71
2022/03/14 05:01:26;;;;;;;2.00;2.00;;;18.00;62.50;;;;;;5087805;28;43943;-71
2022/03/14 05:03:54;;;;;;;1.90;1.90;;;18.20;61.90;;;;;;5077999;28;44928;-71
2022/03/14 05:06:24;;;;;;;2.13;2.13;;;18.30;61.30;;;;;;5069014;28;44009;-70
2022/03/14 05:08:52;;;;;;;1.80;1.80;;;18.30;61.20;;;;;;5071464;28;43348;-71
2022/03/14 05:11:21;;;;;;;1.80;1.80;;;18.30;61.30;;;;;;5070687;28;43664;-70
2022/03/14 05:13:50;;;;;;;2.10;2.10;;;18.20;61.50;;;;;;5070249;28;44036;-71
2022/03/14 05:16:19;;;;;;;2.20;2.20;;;18.10;61.70;;;;;;5070022;28;43745;-71
2022/03/14 05:18:47;;;;;;;1.77;1.77;;;18.00;61.90;;;;;;5070334;28;43410;-71
2022/03/14 05:21:15;;;;;;;1.90;1.90;;;17.90;62.90;;;;;;5082265;28;44850;-71
2022/03/14 05:23:43;;;;;;;1.90;1.90;;;17.80;62.30;;;;;;5087536;28;44599;-71
2022/03/14 05:26:11;;;;;;;1.83;1.83;;;17.80;62.50;;;;;;5084176;28;43946;-70
2022/03/14 05:28:39;;;;;;;2.20;2.10;;;17.70;62.60;;;;;;5088638;28;43855;-71
2022/03/14 05:31:08;;;;;;;2.23;2.23;;;17.70;63.00;;;;;;5077871;28;43942;-71
2022/03/14 05:33:38;;;;;;;2.00;2.00;;;17.80;63.00;;;;;;5070070;28;44069;-71
2022/03/14 05:36:06;;;;;;;2.00;1.90;;;17.90;62.50;;;;;;5087353;28;43930;-71
2022/03/14 05:38:34;;;;;;;1.90;1.90;;;18.00;62.10;;;;;;5090498;28;44060;-72
2022/03/14 05:41:02;;;;;;;1.70;1.70;;;18.00;62.00;;;;;;5089535;28;43943;-70
2022/03/14 05:43:36;;;;;;;1.70;1.70;;;18.00;62.10;;;;;;5081642;28;43371;-71
2022/03/14 05:46:05;;;;;;;2.30;2.20;;;17.90;62.10;;;;;;5089228;28;43798;-71
2022/03/14 05:48:35;;;;;;;1.87;1.87;;;17.80;62.40;;;;;;5076653;28;44018;-71
2022/03/14 05:51:04;;;;;;;1.70;1.70;;;17.80;62.60;;;;;;5088848;28;43956;-71
2022/03/14 05:53:32;;;;;;;1.83;1.83;;;17.70;62.70;;;;;;5082609;27;43887;-71
2022/03/14 05:56:00;;;;;;;2.00;2.00;;;17.70;62.90;;;;;;5070682;28;43340;-70
2022/03/14 05:58:28;;;;;;;1.90;1.90;;;17.60;62.90;;;;;;5066991;28;43962;-71
2022/03/14 06:00:56;;;;;;;2.17;2.07;;;17.60;63.00;;;;;;5070397;28;43988;-71
2022/03/14 06:03:24;;;;;;;1.70;1.70;;;17.60;63.10;;;;;;5089798;27;43974;-71
2022/03/14 06:05:53;;;;;;;1.90;1.90;;;17.60;63.30;;;;;;5089529;27;43922;-71
2022/03/14 06:08:21;;;;;;;1.90;1.90;;;17.60;63.40;;;;;;5084085;27;44111;-71
2022/03/14 06:10:50;;;;;;;2.00;2.00;;;17.80;63.20;;;;;;5087884;28;45116;-70
2022/03/14 06:13:18;;;;;;;1.50;1.50;;;18.00;62.70;;;;;;5087057;28;44110;-71
2022/03/14 06:15:47;;;;;;;1.77;1.67;;;18.20;62.00;;;;;;5091238;28;43360;-71
2022/03/14 06:18:15;;;;;;;1.60;1.60;;;18.30;61.40;;;;;;5093906;27;43989;-71
2022/03/14 06:20:43;;;;;;;1.70;1.70;;;18.40;61.20;;;;;;5073882;28;43922;-71
2022/03/14 06:23:12;;;;;;;1.70;1.70;;;18.30;61.10;;;;;;5087529;28;43934;-70
2022/03/14 06:25:40;;;;;;;1.70;1.70;;;18.20;61.30;;;;;;5092387;28;44038;-71
2022/03/14 06:28:08;;;;;;;1.50;1.50;;;18.10;61.60;;;;;;5094611;28;43986;-71
2022/03/14 06:30:36;;;;;;;1.60;1.60;;;18.00;61.90;;;;;;5092959;28;43954;-71
2022/03/14 06:33:05;;;;;;;1.60;1.60;;;17.90;62.10;;;;;;5092452;28;44708;-71
2022/03/14 06:35:38;;;;;;;1.70;1.70;;;17.80;62.40;;;;;;5093654;27;43405;-70
2022/03/14 06:38:06;;;;;;;1.60;1.60;;;17.80;62.50;;;;;;5084648;27;44014;-71
2022/03/14 06:40:36;;;;;;;1.60;1.60;;;17.80;62.80;;;;;;5070123;28;44071;-71
2022/03/14 06:43:05;;;;;;;1.60;1.60;;;17.70;63.00;;;;;;5071150;28;43980;-72
2022/03/14 06:45:33;;;;;;;1.60;1.60;;;17.80;63.00;;;;;;5073433;28;43947;-70
2022/03/14 06:48:01;;;;;;;1.50;1.50;;;17.90;62.50;;;;;;5073773;28;44355;-71
2022/03/14 06:50:32;;;;;;;1.60;1.60;;;18.00;62.20;;;;;;5073381;28;44146;-72
2022/03/14 06:53:00;;;;;;;1.60;1.60;;;18.00;62.00;;;;;;5075446;28;44044;-70
2022/03/14 06:55:28;;;;;;;1.60;1.60;;;18.00;62.00;;;;;;5092284;28;43867;-70
2022/03/14 06:57:57;;;;;;;1.33;1.33;;;17.90;62.20;;;;;;5090803;28;43959;-71
2022/03/14 07:00:26;;;;;;;1.63;1.63;;;17.90;62.40;;;;;;5073220;28;43946;-71
2022/03/14 07:02:55;;;;;;;1.50;1.50;;;17.80;62.60;;;;;;5073217;28;43968;-71
2022/03/14 07:05:26;;;;;;;1.33;1.33;;;17.70;62.70;;;;;;5078866;28;43958;-70
2022/03/14 07:07:54;;;;;;;1.60;1.60;;;17.70;62.90;;;;;;5073364;28;43400;-72
2022/03/14 07:10:22;;;;;;;1.53;1.53;;;17.70;63.00;;;;;;5082808;28;44231;-71
2022/03/14 07:12:50;;;;;;;1.60;1.60;;;17.70;63.10;;;;;;5079052;27;43966;-71
2022/03/14 07:15:21;;;;;;;1.43;1.43;;;17.60;63.10;;;;;;5092725;27;44039;-71
2022/03/14 07:17:50;;;;;;;1.70;1.70;;;17.60;63.20;;;;;;5093550;28;43970;-71
2022/03/14 07:20:18;;;;;;;1.20;1.20;;;17.60;63.50;;;;;;5074964;27;43633;-70
2022/03/14 07:22:50;;;;;;;1.53;1.53;;;17.80;63.30;;;;;;5073006;28;43926;-71
2022/03/14 07:25:23;;;;;;;1.63;1.63;;;18.00;62.70;;;;;;5082357;28;43432;-72
2022/03/14 07:27:51;;;;;;;1.50;1.50;;;18.20;62.00;;;;;;5092664;28;43450;-71
2022/03/14 07:30:20;;;;;;;1.30;1.30;;;18.30;61.50;;;;;;5084719;28;46175;-71
2022/03/14 07:32:48;;;;;;;1.30;1.30;;;18.40;61.30;;;;;;5092169;28;44013;-70
2022/03/14 07:35:16;;;;;;;1.40;1.40;;;18.30;61.20;;;;;;5092760;28;43385;-71
2022/03/14 07:37:44;;;;;;;1.43;1.43;;;18.20;61.30;;;;;;5092609;27;43996;-71
2022/03/14 07:40:14;;;;;;;1.50;1.50;;;18.10;61.60;;;;;;5091831;27;43887;-71
2022/03/14 07:42:43;;;;;;;1.50;1.50;;;18.00;61.90;;;;;;5073347;28;44143;-70
2022/03/14 07:45:11;;;;;;;1.33;1.33;;;17.90;62.20;;;;;;5071959;28;43987;-72
2022/03/14 07:47:40;;;;;;;1.30;1.30;;;17.90;62.50;;;;;;5070567;28;43899;-71
2022/03/14 07:50:09;;;;;;;1.40;1.40;;;17.80;62.60;;;;;;5085580;28;43891;-71
2022/03/14 07:52:37;;;;;;;1.43;1.43;;;17.80;62.80;;;;;;5084848;28;43398;-71
2022/03/14 07:55:06;;;;;;;1.40;1.40;;;17.70;63.00;;;;;;5065094;28;43972;-71
2022/03/14 07:57:35;;;;;;;1.60;1.60;;;17.80;63.10;;;;;;5072509;28;43354;-71
2022/03/14 08:00:03;;;;;;;1.20;1.20;;;17.90;62.50;;;;;;5065815;28;44077;-71
2022/03/14 08:02:43;;;;;;;1.33;1.33;;;18.00;62.20;;;;;;5072280;28;43875;-70
2022/03/14 08:05:13;;;;;;;1.23;1.23;;;18.00;62.00;;;;;;5076606;27;44022;-72
2022/03/14 08:07:41;;;;;;;1.30;1.30;;;18.00;62.10;;;;;;5085862;28;43733;-71
2022/03/14 08:10:11;;;;;;;1.30;1.30;;;17.90;62.20;;;;;;5090167;28;45766;-71
2022/03/14 08:12:47;;;;;;;1.40;1.40;;;17.90;62.50;;;;;;5091510;27;43892;-71
2022/03/14 08:15:22;;;;;;;1.60;1.60;;;17.80;62.50;;;;;;5091604;27;44037;-71
2022/03/14 08:17:52;;;;;;;1.60;1.60;;;17.70;62.60;;;;;;5087335;27;43453;-71
2022/03/14 08:20:20;;;;;;;1.67;1.67;;;17.70;62.70;;;;;;5071773;28;44792;-71
2022/03/14 08:22:48;;;;;;;1.70;1.67;;;17.70;62.90;;;;;;5071338;28;44057;-70
2022/03/14 08:25:16;;;;;;;1.30;1.30;;;17.60;62.90;;;;;;5088952;28;44009;-71
2022/03/14 08:27:44;;;;;;;2.17;1.33;;;17.60;62.90;;;;;;5086819;27;43912;-71
2022/03/14 08:30:12;;;;;;;1.50;1.40;;;17.60;63.10;;;;;;5071377;28;44052;-71
2022/03/14 08:32:40;;;;;;;1.40;1.40;;;17.60;63.30;;;;;;5077895;28;44308;-72
2022/03/14 08:35:10;;;;;;;1.40;1.40;;;17.80;63.20;;;;;;5088725;28;44046;-71
2022/03/14 08:37:43;;;;;;;1.87;1.77;;;18.00;62.70;;;;;;5091142;27;44089;-71
2022/03/14 08:40:13;;;;;;;1.50;1.50;;;18.20;62.00;;;;;;5091755;27;43966;-72
2022/03/14 08:42:42;;;;;;;1.47;1.37;;;18.30;61.50;;;;;;5091471;27;43987;-71
2022/03/14 08:45:10;;;;;;;1.50;1.40;;;18.30;61.20;;;;;;5071742;28;43403;-71
2022/03/14 08:47:38;;;;;;;1.50;1.50;;;18.30;61.10;;;;;;5072521;28;43947;-70
2022/03/14 08:50:09;;;;;;;1.67;1.40;;;18.20;61.20;;;;;;5084114;27;43954;-71
2022/03/14 08:52:37;;;;;;;1.40;1.40;;;18.10;61.50;;;;;;5065760;28;45180;-72
2022/03/14 08:55:06;;;;;;;1.57;1.57;;;18.00;61.80;;;;;;5077836;28;43944;-71
2022/03/14 08:57:39;;;;;;;1.30;1.30;;;17.90;62.00;;;;;;5090820;27;43937;-71
2022/03/14 09:00:08;;;;;;;1.27;1.27;;;17.80;62.20;;;;;;5085390;28;44101;-70
2022/03/14 09:02:40;;;;;;;11.73;2.40;;;17.80;62.40;;;;;;5091023;27;43943;-71
2022/03/14 09:05:10;;;;;;;1.97;1.70;;;17.70;62.60;;;;;;5075973;28;43983;-71
2022/03/14 09:07:38;;;;;;;1.40;1.40;;;17.70;62.90;;;;;;5071462;28;44232;-71
2022/03/14 09:10:07;;;;;;;1.43;1.43;;;17.70;63.00;;;;;;5082281;28;45119;-70
2022/03/14 09:12:37;;;;;;;1.50;1.50;;;17.90;62.60;;;;;;5073004;28;43477;-71
2022/03/14 09:15:06;;;;;;;1.40;1.40;;;18.00;62.20;;;;;;5080797;27;43935;-71
2022/03/14 09:17:35;;;;;;;1.40;1.40;;;18.00;61.90;;;;;;5071552;28;44209;-71
2022/03/14 09:20:05;;;;;;;1.33;1.33;;;18.00;61.90;;;;;;5078514;28;44214;-71
2022/03/14 09:22:35;;;;;;;1.30;1.30;;;17.90;62.00;;;;;;5087144;27;44013;-71
2022/03/14 09:25:07;;;;;;;1.40;1.40;;;17.90;62.30;;;;;;5069347;28;44067;-71
2022/03/14 09:27:35;;;;;;;1.47;1.43;;;17.80;62.50;;;;;;5077791;28;43458;-71
2022/03/14 09:30:03;;;;;;;1.40;1.40;;;17.70;62.60;;;;;;5070235;28;44003;-71
2022/03/14 09:32:31;;;;;;;1.53;1.53;;;17.70;62.70;;;;;;5069806;28;44236;-71
2022/03/14 09:34:59;;;;;;;1.40;1.40;;;17.60;62.80;;;;;;5086795;28;43994;-72
2022/03/14 09:37:32;;;;;;;1.30;1.30;;;17.60;62.90;;;;;;5084809;27;43994;-70
2022/03/14 09:40:01;;;;;;;1.40;1.40;;;17.60;63.00;;;;;;5071528;28;43951;-71
2022/03/14 09:42:29;;;;;;;1.60;1.50;;;17.60;63.80;;;;;;5089844;27;43417;-71
2022/03/14 09:45:02;;;;;;;1.80;1.70;;;17.60;63.40;;;;;;5094575;28;43828;-71
2022/03/14 09:47:30;;;;;;;1.60;1.50;;;17.80;63.30;;;;;;5080478;28;44061;-70
2022/03/14 09:49:58;;;;;;;1.70;1.60;;;17.90;62.70;;;;;;5074176;28;43802;-71
2022/03/14 09:52:26;;;;;;;1.40;1.40;;;18.10;62.10;;;;;;5079617;28;43803;-71
2022/03/14 09:54:54;;;;;;;1.50;1.50;;;18.30;61.60;;;;;;5081923;28;44025;-71
2022/03/14 09:57:23;;;;;;;1.47;1.47;;;18.30;61.20;;;;;;5074644;28;43976;-71
2022/03/14 09:59:52;;;;;;;1.50;1.50;;;18.30;61.20;;;;;;5093324;28;43971;-71
2022/03/14 10:02:23;;;;;;;1.57;1.57;;;18.20;61.20;;;;;;5092830;27;43966;-71
2022/03/14 10:04:51;;;;;;;1.50;1.50;;;18.10;61.60;;;;;;5093643;28;43965;-70
2022/03/14 10:07:21;;;;;;;1.60;1.60;;;18.00;61.80;;;;;;5080422;27;43556;-70
2022/03/14 10:09:54;;;;;;;1.60;1.60;;;17.90;62.10;;;;;;5072161;28;46935;-71
2022/03/14 10:12:26;;;;;;;1.63;1.63;;;17.80;62.30;;;;;;5073547;28;43817;-71
2022/03/14 10:14:54;;;;;;;1.50;1.50;;;17.80;62.60;;;;;;5079079;28;43943;-71
2022/03/14 10:17:22;;;;;;;1.97;1.80;;;17.70;62.70;;;;;;5081426;28;44019;-71
2022/03/14 10:19:54;;;;;;;1.50;1.50;;;17.70;62.90;;;;;;5092972;28;43937;-71
2022/03/14 10:22:22;;;;;;;1.30;1.30;;;17.70;63.20;;;;;;5079827;28;43348;-72
2022/03/14 10:24:54;;;;;;;1.60;1.60;;;17.80;62.90;;;;;;5092959;28;43355;-70
2022/03/14 10:27:22;;;;;;;1.57;1.50;;;18.00;62.40;;;;;;5093421;27;44048;-71
2022/03/14 10:29:51;;;;;;;1.70;1.70;;;18.00;62.10;;;;;;5092793;27;43989;-70
2022/03/14 10:32:30;;;;;;;1.60;1.60;;;18.00;61.90;;;;;;5083495;28;44066;-71
2022/03/14 10:35:01;;;;;;;1.73;1.73;;;17.90;62.00;;;;;;5083869;28;43351;-70
2022/03/14 10:37:29;;;;;;;2.33;2.23;;;17.80;62.10;;;;;;5092060;28;43963;-71
2022/03/14 10:39:59;;;;;;;3.33;2.20;;;17.80;62.40;;;;;;5091202;27;44009;-70
2022/03/14 10:42:28;;;;;;;3.63;2.20;;;17.70;62.50;;;;;;5091394;27;44026;-71
2022/03/14 10:44:58;;;;;;;3.23;2.80;;;17.70;62.70;;;;;;5085628;28;43575;-71
2022/03/14 10:47:26;;;;;;;3.33;2.30;;;17.60;62.70;;;;;;5091118;28;44117;-70
2022/03/14 10:49:54;;;;;;;2.60;2.40;;;17.60;62.90;;;;;;5092247;28;44043;-70
2022/03/14 10:52:22;;;;;;;2.67;2.50;;;17.60;62.90;;;;;;5072087;28;45770;-71
2022/03/14 10:54:50;;;;;;;3.20;2.40;;;17.60;63.00;;;;;;5071660;28;43321;-70
2022/03/14 10:57:19;;;;;;;6.07;2.67;;;17.50;63.30;;;;;;5073288;28;43976;-70
2022/03/14 10:59:48;;;;;;;3.63;2.53;;;17.60;63.40;;;;;;5084810;28;43894;-70
2022/03/14 11:02:19;;;;;;;2.60;2.40;;;17.80;63.10;;;;;;5078839;28;43950;-70
2022/03/14 11:04:48;;;;;;;3.03;2.70;;;18.00;62.50;;;;;;5092527;27;44121;-71
2022/03/14 11:07:17;;;;;;;3.07;2.77;;;18.20;61.90;;;;;;5093607;27;43871;-71
2022/03/14 11:09:46;;;;;;;4.83;2.70;;;18.30;61.50;;;;;;5092426;28;45107;-71
2022/03/14 11:12:16;;;;;;;2.67;2.57;;;18.30;61.30;;;;;;5086189;28;43920;-71
2022/03/14 11:14:50;;;;;;;2.70;2.50;;;18.20;61.20;;;;;;5066226;28;44059;-71
2022/03/14 11:17:20;;;;;;;2.33;2.23;;;18.10;61.40;;;;;;5064158;28;44094;-71
2022/03/14 11:19:48;;;;;;;2.70;2.50;;;18.00;61.70;;;;;;5086973;28;44031;-71
2022/03/14 11:22:17;;;;;;;2.80;2.70;;;17.90;62.00;;;;;;5078312;28;44131;-71
2022/03/14 11:24:46;;;;;;;2.37;2.27;;;17.80;62.10;;;;;;5091278;28;44025;-71
2022/03/14 11:27:20;;;;;;;2.83;2.63;;;17.80;62.40;;;;;;5093159;28;43344;-71
2022/03/14 11:29:48;;;;;;;2.60;2.50;;;17.70;62.50;;;;;;5089520;28;46258;-71
2022/03/14 11:32:17;;;;;;;3.00;2.70;;;17.70;62.70;;;;;;5088452;27;43342;-71
2022/03/14 11:35:03;;;;;;;2.90;2.70;;;17.70;63.10;;;;;;5072298;28;43978;-71
2022/03/14 11:37:31;;;;;;;2.60;2.40;;;17.70;63.10;;;;;;5085115;28;44034;-71
2022/03/14 11:40:00;;;;;;;2.37;2.27;;;17.90;62.60;;;;;;5091076;28;43966;-70
2022/03/14 11:42:28;;;;;;;2.67;2.57;;;18.00;62.30;;;;;;5078683;28;44942;-71
2022/03/14 11:44:56;;;;;;;2.47;2.37;;;17.90;62.10;;;;;;5077832;28;44204;-71
2022/03/14 11:47:24;;;;;;;2.43;2.33;;;17.90;62.10;;;;;;5084329;28;43916;-71
2022/03/14 11:49:52;;;;;;;2.53;2.20;;;17.80;62.30;;;;;;5087437;27;43701;-72
2022/03/14 11:52:24;;;;;;;2.10;2.00;;;17.80;62.50;;;;;;5078931;28;44322;-71
2022/03/14 11:54:53;;;;;;;2.23;2.20;;;17.70;62.70;;;;;;5072873;28;43753;-71
2022/03/14 11:57:36;;;;;;;2.30;2.20;;;17.70;62.80;;;;;;5078721;28;44026;-71
2022/03/14 12:00:35;;;;;;;2.43;2.33;;;17.60;62.90;;;;;;5076078;27;44024;-71
2022/03/14 12:03:05;;;;;;;2.47;2.30;;;17.60;63.00;;;;;;5077353;28;43930;-71
2022/03/14 12:05:48;;;;;;;2.60;2.50;;;17.60;63.20;;;;;;5090543;27;43953;-70
2022/03/14 12:08:58;;;;;;;2.30;2.20;;;17.50;63.20;;;;;;5068507;28;43888;-71
2022/03/14 12:11:40;;;;;;;2.30;2.17;;;17.60;63.60;;;;;;5054162;28;43980;-71
2022/03/14 12:14:11;;;;;;;2.33;2.23;;;17.70;63.40;;;;;;5067900;28;44201;-72
2022/03/14 12:16:39;;;;;;;2.10;2.00;;;17.90;63.00;;;;;;5079730;28;43993;-70
2022/03/14 12:19:30;;;;;;;2.40;2.30;;;18.10;62.30;;;;;;5088536;27;44181;-71
2022/03/14 12:21:58;;;;;;;2.27;2.17;;;18.20;61.70;;;;;;5090903;28;43708;-70
2022/03/14 12:24:49;;;;;;;1.80;1.80;;;18.20;61.50;;;;;;5089758;28;46688;-71
2022/03/14 12:27:20;;;;;;;1.97;1.90;;;18.20;61.60;;;;;;5090830;27;44222;-71
2022/03/14 12:29:48;;;;;;;1.90;1.80;;;18.10;61.70;;;;;;5091640;28;43774;-71
2022/03/14 12:32:32;;;;;;;1.90;1.90;;;18.00;62.00;;;;;;5091153;28;43957;-70
2022/03/14 12:35:03;;;;;;;2.03;2.03;;;17.90;62.20;;;;;;5085229;28;44025;-71
2022/03/14 12:37:39;;;;;;;2.03;1.93;;;17.80;62.50;;;;;;5073103;28;44010;-72
2022/03/14 12:40:08;;;;;;;2.20;2.10;;;17.70;62.60;;;;;;5072134;28;43958;-70
2022/03/14 12:42:41;;;;;;;1.80;1.73;;;17.70;62.90;;;;;;5090003;28;45069;-72
2022/03/14 12:45:16;;;;;;;2.20;2.10;;;17.60;62.90;;;;;;5091279;27;43908;-70
2022/03/14 12:47:50;;;;;;;2.00;2.00;;;17.60;63.30;;;;;;5089456;28;43777;-71
2022/03/14 12:50:45;;;;;;;1.90;1.80;;;17.70;63.30;;;;;;5090220;28;43832;-70
2022/03/14 12:53:14;;;;;;;2.00;1.90;;;17.80;62.80;;;;;;5089903;28;43755;-71
2022/03/14 12:55:45;;;;;;;2.07;1.97;;;17.90;62.40;;;;;;5088955;28;44468;-72
2022/03/14 12:58:18;;;;;;;2.00;2.00;;;17.90;62.30;;;;;;5084552;27;43394;-71
2022/03/14 13:00:46;;;;;;;1.80;1.80;;;17.90;62.40;;;;;;5078370;28;43982;-72